Time;durP1;ratioP1;P1;durP2;ratioP2;P2;SDS_P1;SDS_P2;PMS_P1;PMS_P2;Temp;Humidity;BMP_temperature;BMP_pressure;BME280_temperature;BME280_humidity;BME280_pressure;Samples;Min_cycle;Max_cycle;Signal;HPM_P1;HPM_P2
2023/03/28 00:01:21;;;;;;;14.75;2.72;;;;;;;;;;5053032;28;20043;-63
2023/03/28 00:03:47;;;;;;;10.48;2.08;;;;;;;;;;5052909;28;20817;-63
2023/03/28 00:06:17;;;;;;;12.55;1.60;;;;;;;;;;5052409;28;20037;-64
2023/03/28 00:08:44;;;;;;;13.40;2.15;;;;;;;;;;5052970;28;20055;-64
2023/03/28 00:11:11;;;;;;;6.15;1.55;;;;;;;;;;5052921;28;20455;-63
2023/03/28 00:13:37;;;;;;;12.02;1.90;;;;;;;;;;5052364;28;20483;-63
2023/03/28 00:16:05;;;;;;;16.17;3.00;;;;;;;;;;5052528;28;20049;-63
2023/03/28 00:18:31;;;;;;;14.15;2.70;;;;;;;;;;5052370;28;20049;-63
2023/03/28 00:20:57;;;;;;;9.02;1.80;;;;;;;;;;5052032;28;20087;-63
2023/03/28 00:23:23;;;;;;;10.75;2.00;;;;;;;;;;5034468;28;20742;-63
2023/03/28 00:25:49;;;;;;;13.80;2.13;;;;;;;;;;5052656;28;20041;-63
2023/03/28 00:28:15;;;;;;;13.55;1.98;;;;;;;;;;5052005;28;20513;-63
2023/03/28 00:30:41;;;;;;;8.52;1.65;;;;;;;;;;5052510;28;20059;-63
2023/03/28 00:33:07;;;;;;;10.98;1.70;;;;;;;;;;5052280;28;20076;-63
2023/03/28 00:35:34;;;;;;;14.38;2.13;;;;;;;;;;5051850;28;20040;-63
2023/03/28 00:38:02;;;;;;;12.40;1.65;;;;;;;;;;5052415;28;20072;-63
2023/03/28 00:40:29;;;;;;;10.82;1.60;;;;;;;;;;5052454;28;20112;-63
2023/03/28 00:42:55;;;;;;;14.35;2.15;;;;;;;;;;5051765;28;20123;-63
2023/03/28 00:45:22;;;;;;;8.52;1.83;;;;;;;;;;5052176;28;20487;-63
2023/03/28 00:48:00;;;;;;;10.02;1.98;;;;;;;;;;5051919;28;20079;-63
2023/03/28 00:50:28;;;;;;;13.65;1.90;;;;;;;;;;5051734;28;20091;-63
2023/03/28 00:53:09;;;;;;;11.57;1.85;;;;;;;;;;5051913;28;20446;-63
2023/03/28 00:55:44;;;;;;;13.40;1.90;;;;;;;;;;5052055;28;20056;-63
2023/03/28 00:58:11;;;;;;;9.52;1.55;;;;;;;;;;5051393;28;20051;-63
2023/03/28 01:00:40;;;;;;;7.93;1.70;;;;;;;;;;5050712;28;20045;-63
2023/03/28 01:03:06;;;;;;;16.80;2.03;;;;;;;;;;5051522;28;20048;-63
2023/03/28 01:05:33;;;;;;;9.90;2.13;;;;;;;;;;5051424;28;20033;-63
2023/03/28 01:08:20;;;;;;;12.38;1.88;;;;;;;;;;5034135;28;20036;-63
2023/03/28 01:10:46;;;;;;;12.13;1.88;;;;;;;;;;5051134;28;20041;-63
2023/03/28 01:13:25;;;;;;;13.02;1.88;;;;;;;;;;5051699;28;20091;-63
2023/03/28 01:15:51;;;;;;;10.32;1.85;;;;;;;;;;5051621;28;20049;-63
2023/03/28 01:18:21;;;;;;;12.23;1.70;;;;;;;;;;5050320;28;20036;-63
2023/03/28 01:21:10;;;;;;;12.25;1.77;;;;;;;;;;5051485;28;20045;-63
2023/03/28 01:24:12;;;;;;;13.90;1.92;;;;;;;;;;5048076;28;20479;-63
2023/03/28 01:26:50;;;;;;;6.72;1.40;;;;;;;;;;5008168;28;20473;-63
2023/03/28 01:29:39;;;;;;;10.95;2.03;;;;;;;;;;5046275;28;20044;-63
2023/03/28 01:32:18;;;;;;;10.80;1.60;;;;;;;;;;5048161;28;20140;-63
2023/03/28 01:35:05;;;;;;;20.25;2.63;;;;;;;;;;5050776;28;20464;-63
2023/03/28 01:37:31;;;;;;;12.70;2.10;;;;;;;;;;5051303;28;20101;-63
2023/03/28 01:40:17;;;;;;;10.43;2.22;;;;;;;;;;5051052;28;20405;-63
2023/03/28 01:42:58;;;;;;;14.35;2.15;;;;;;;;;;5051076;28;20102;-63
2023/03/28 01:45:29;;;;;;;11.32;2.20;;;;;;;;;;5050932;28;20033;-63
2023/03/28 01:48:17;;;;;;;12.20;2.63;;;;;;;;;;5050322;28;20069;-63
2023/03/28 01:50:49;;;;;;;16.77;2.78;;;;;;;;;;5050732;28;20043;-63
2023/03/28 01:53:27;;;;;;;7.45;1.50;;;;;;;;;;5050985;28;20045;-63
2023/03/28 01:55:56;;;;;;;9.65;1.95;;;;;;;;;;5050500;28;20076;-63
2023/03/28 01:58:43;;;;;;;9.23;1.92;;;;;;;;;;5050875;28;20045;-63
2023/03/28 02:01:12;;;;;;;10.35;1.98;;;;;;;;;;5050698;28;20033;-63
2023/03/28 02:03:40;;;;;;;13.55;1.95;;;;;;;;;;5050354;28;20430;-63
2023/03/28 02:06:08;;;;;;;12.77;1.92;;;;;;;;;;5050563;28;20048;-63
2023/03/28 02:08:36;;;;;;;16.67;3.42;;;;;;;;;;5050798;28;20049;-63
2023/03/28 02:11:03;;;;;;;15.82;2.40;;;;;;;;;;5049893;28;20045;-63
2023/03/28 02:13:33;;;;;;;11.77;1.92;;;;;;;;;;5050767;28;20045;-63
2023/03/28 02:16:00;;;;;;;13.57;2.53;;;;;;;;;;5050639;28;20040;-63
2023/03/28 02:18:33;;;;;;;16.67;2.33;;;;;;;;;;5032043;28;20052;-63
2023/03/28 02:21:01;;;;;;;11.50;2.15;;;;;;;;;;5050456;28;20127;-63
2023/03/28 02:23:32;;;;;;;14.02;2.33;;;;;;;;;;5050305;28;20135;-63
2023/03/28 02:25:58;;;;;;;16.60;2.55;;;;;;;;;;5049674;28;20048;-63
2023/03/28 02:28:25;;;;;;;17.40;2.40;;;;;;;;;;5050654;28;20067;-63
2023/03/28 02:30:52;;;;;;;11.25;1.83;;;;;;;;;;5050558;28;20087;-63
2023/03/28 02:33:36;;;;;;;12.85;1.92;;;;;;;;;;5049998;28;20451;-63
2023/03/28 02:36:22;;;;;;;11.70;2.20;;;;;;;;;;5050783;28;20499;-63
2023/03/28 02:38:51;;;;;;;13.30;2.17;;;;;;;;;;5050034;28;20045;-63
2023/03/28 02:41:17;;;;;;;14.48;2.33;;;;;;;;;;5049693;28;20048;-63
2023/03/28 02:43:43;;;;;;;14.15;1.98;;;;;;;;;;5050247;28;20368;-63
2023/03/28 02:46:19;;;;;;;6.53;1.77;;;;;;;;;;5050393;28;20033;-63
2023/03/28 02:49:04;;;;;;;12.93;2.20;;;;;;;;;;5049781;28;20107;-63
2023/03/28 02:51:33;;;;;;;9.43;2.28;;;;;;;;;;5050434;28;20551;-63
2023/03/28 02:54:18;;;;;;;11.40;1.80;;;;;;;;;;5050465;28;20037;-63
2023/03/28 02:56:49;;;;;;;12.38;1.75;;;;;;;;;;5050567;28;20048;-63
2023/03/28 02:59:22;;;;;;;17.48;2.63;;;;;;;;;;5050266;28;20053;-63
2023/03/28 03:01:48;;;;;;;9.93;1.98;;;;;;;;;;5049749;28;20037;-63
2023/03/28 03:04:16;;;;;;;8.63;2.60;;;;;;;;;;5049987;28;20048;-63
2023/03/28 03:06:44;;;;;;;11.52;2.13;;;;;;;;;;5050244;28;20044;-63
2023/03/28 03:09:10;;;;;;;15.25;2.60;;;;;;;;;;5049635;28;20093;-63
2023/03/28 03:11:37;;;;;;;12.63;2.25;;;;;;;;;;5050353;28;20642;-63
2023/03/28 03:14:03;;;;;;;13.88;2.33;;;;;;;;;;5050315;28;20040;-63
2023/03/28 03:16:29;;;;;;;11.77;2.13;;;;;;;;;;5049561;28;20176;-63
2023/03/28 03:18:58;;;;;;;10.32;2.10;;;;;;;;;;5049796;28;20049;-63
2023/03/28 03:21:25;;;;;;;9.25;1.95;;;;;;;;;;5049527;28;20124;-63
2023/03/28 03:23:51;;;;;;;8.30;1.95;;;;;;;;;;5050685;28;20053;-63
2023/03/28 03:26:17;;;;;;;9.45;1.90;;;;;;;;;;5053236;28;20041;-63
2023/03/28 03:28:44;;;;;;;14.27;2.20;;;;;;;;;;5053891;28;20047;-63
2023/03/28 03:31:10;;;;;;;12.90;1.88;;;;;;;;;;5053739;28;20167;-63
2023/03/28 03:33:36;;;;;;;14.35;2.00;;;;;;;;;;5053394;28;20052;-63
2023/03/28 03:36:03;;;;;;;9.88;2.00;;;;;;;;;;5053647;28;20598;-63
2023/03/28 03:38:29;;;;;;;11.15;2.60;;;;;;;;;;5053345;28;20044;-63
2023/03/28 03:40:55;;;;;;;11.18;1.90;;;;;;;;;;5052756;28;20090;-63
2023/03/28 03:43:21;;;;;;;14.25;1.92;;;;;;;;;;5053461;28;20642;-63
2023/03/28 03:45:47;;;;;;;13.77;2.35;;;;;;;;;;5053500;28;20091;-63
2023/03/28 03:48:13;;;;;;;12.18;1.85;;;;;;;;;;5052371;28;20051;-63
2023/03/28 03:50:39;;;;;;;12.55;1.90;;;;;;;;;;5053290;28;20125;-63
2023/03/28 03:53:05;;;;;;;10.63;2.22;;;;;;;;;;5052930;28;20052;-63
2023/03/28 03:55:32;;;;;;;14.20;2.03;;;;;;;;;;5052601;28;20044;-63
2023/03/28 03:57:58;;;;;;;13.13;2.42;;;;;;;;;;5053059;28;20047;-63
2023/03/28 04:00:26;;;;;;;9.75;2.08;;;;;;;;;;5053002;28;20063;-63
2023/03/28 04:02:52;;;;;;;18.92;2.45;;;;;;;;;;5052520;28;20033;-63
2023/03/28 04:05:18;;;;;;;13.85;1.77;;;;;;;;;;5053077;28;20124;-63
2023/03/28 04:07:44;;;;;;;14.18;1.98;;;;;;;;;;5053178;28;20763;-63
2023/03/28 04:10:10;;;;;;;11.35;2.10;;;;;;;;;;5052311;28;20041;-63
2023/03/28 04:12:36;;;;;;;8.63;1.85;;;;;;;;;;5053087;28;20471;-63
2023/03/28 04:15:03;;;;;;;14.25;2.10;;;;;;;;;;5052521;28;20047;-63
2023/03/28 04:17:33;;;;;;;8.00;1.80;;;;;;;;;;5052330;28;20128;-63
2023/03/28 04:20:00;;;;;;;18.15;2.25;;;;;;;;;;5052796;28;20068;-63
2023/03/28 04:22:28;;;;;;;12.15;1.70;;;;;;;;;;5052558;28;20534;-63
2023/03/28 04:24:55;;;;;;;9.63;2.70;;;;;;;;;;5051796;28;20045;-63
2023/03/28 04:27:25;;;;;;;8.95;2.22;;;;;;;;;;5052251;28;20052;-63
2023/03/28 04:29:52;;;;;;;10.80;2.28;;;;;;;;;;5052287;28;20049;-63
2023/03/28 04:32:20;;;;;;;13.85;2.28;;;;;;;;;;5051699;28;20048;-63
2023/03/28 04:34:48;;;;;;;11.95;2.20;;;;;;;;;;5052326;28;20475;-63
2023/03/28 04:37:14;;;;;;;11.25;2.03;;;;;;;;;;5052415;28;20407;-63
2023/03/28 04:39:40;;;;;;;13.50;2.58;;;;;;;;;;5051516;28;20044;-63
2023/03/28 04:42:07;;;;;;;10.98;2.13;;;;;;;;;;5052351;28;20037;-63
2023/03/28 04:44:33;;;;;;;14.18;2.20;;;;;;;;;;5052252;28;20049;-63
2023/03/28 04:46:59;;;;;;;9.85;1.65;;;;;;;;;;5051797;28;20116;-63
2023/03/28 04:49:26;;;;;;;13.52;2.58;;;;;;;;;;5051973;28;20048;-63
2023/03/28 04:51:52;;;;;;;16.10;2.95;;;;;;;;;;5052344;28;20041;-63
2023/03/28 04:54:18;;;;;;;9.80;1.75;;;;;;;;;;5051713;28;20382;-63
2023/03/28 04:56:48;;;;;;;11.25;2.50;;;;;;;;;;5052429;28;20041;-63
2023/03/28 04:59:14;;;;;;;14.15;2.65;;;;;;;;;;5052252;28;20091;-63
2023/03/28 05:01:47;;;;;;;9.88;2.20;;;;;;;;;;5051338;28;20170;-63
2023/03/28 05:04:14;;;;;;;10.77;1.67;;;;;;;;;;5044124;28;20041;-63
2023/03/28 05:06:40;;;;;;;11.00;1.88;;;;;;;;;;5051287;28;20048;-63
2023/03/28 05:09:06;;;;;;;14.05;1.77;;;;;;;;;;5051325;28;20441;-63
2023/03/28 05:11:32;;;;;;;14.70;2.10;;;;;;;;;;5051790;28;20048;-63
2023/03/28 05:13:58;;;;;;;13.40;2.03;;;;;;;;;;5051839;28;20068;-63
2023/03/28 05:16:24;;;;;;;9.45;2.33;;;;;;;;;;5051272;28;20048;-63
2023/03/28 05:18:51;;;;;;;15.77;2.63;;;;;;;;;;5051700;28;20041;-63
2023/03/28 05:21:17;;;;;;;11.13;2.08;;;;;;;;;;5051672;28;20048;-63
2023/03/28 05:23:43;;;;;;;9.73;1.73;;;;;;;;;;5050661;28;20045;-63
2023/03/28 05:26:09;;;;;;;5.60;2.25;;;;;;;;;;5051661;28;20075;-63
2023/03/28 05:28:35;;;;;;;9.65;1.92;;;;;;;;;;5051627;28;20045;-63
2023/03/28 05:31:02;;;;;;;9.07;2.72;;;;;;;;;;5050927;28;20045;-63
2023/03/28 05:33:31;;;;;;;10.35;2.20;;;;;;;;;;5051757;28;20483;-63
2023/03/28 05:35:57;;;;;;;7.38;2.00;;;;;;;;;;5051561;28;20037;-63
2023/03/28 05:38:23;;;;;;;10.00;1.90;;;;;;;;;;5050870;28;20056;-63
2023/03/28 05:40:49;;;;;;;8.50;1.98;;;;;;;;;;5051139;28;20041;-63
2023/03/28 05:43:15;;;;;;;9.07;1.90;;;;;;;;;;5051138;28;20040;-64
2023/03/28 05:45:41;;;;;;;12.15;2.63;;;;;;;;;;5050136;28;20040;-64
2023/03/28 05:48:07;;;;;;;9.32;2.30;;;;;;;;;;5050933;28;20091;-63
2023/03/28 05:50:33;;;;;;;9.93;2.25;;;;;;;;;;5051166;28;20471;-63
2023/03/28 05:52:59;;;;;;;10.07;2.30;;;;;;;;;;5050772;28;20438;-63
2023/03/28 05:55:25;;;;;;;11.27;2.33;;;;;;;;;;5050586;28;20383;-63
2023/03/28 05:57:51;;;;;;;8.57;2.25;;;;;;;;;;5050964;28;20522;-63
2023/03/28 06:00:18;;;;;;;10.80;2.80;;;;;;;;;;5050115;28;20047;-64
2023/03/28 06:02:44;;;;;;;17.13;2.80;;;;;;;;;;5051065;28;20078;-63
2023/03/28 06:05:12;;;;;;;11.07;2.15;;;;;;;;;;5050749;28;20079;-64
2023/03/28 06:07:38;;;;;;;11.68;2.53;;;;;;;;;;5050373;28;20048;-64
2023/03/28 06:10:05;;;;;;;9.55;2.35;;;;;;;;;;5050862;28;20598;-64
2023/03/28 06:12:31;;;;;;;13.52;3.10;;;;;;;;;;5050582;28;20049;-64
2023/03/28 06:14:57;;;;;;;12.50;2.40;;;;;;;;;;5050355;28;20037;-64
2023/03/28 06:17:24;;;;;;;11.30;2.00;;;;;;;;;;5050480;28;20036;-64
2023/03/28 06:19:50;;;;;;;7.82;2.05;;;;;;;;;;5050463;28;20041;-64
2023/03/28 06:22:16;;;;;;;10.32;2.70;;;;;;;;;;5050026;28;20053;-64
2023/03/28 06:24:42;;;;;;;9.77;2.03;;;;;;;;;;5050590;28;20040;-64
2023/03/28 06:27:08;;;;;;;12.35;2.15;;;;;;;;;;5050027;28;20041;-64
2023/03/28 06:29:35;;;;;;;7.75;2.17;;;;;;;;;;5049902;28;20467;-64
2023/03/28 06:32:01;;;;;;;9.02;1.70;;;;;;;;;;5050490;28;20045;-64
2023/03/28 06:34:27;;;;;;;10.38;1.70;;;;;;;;;;5050137;28;20044;-65
2023/03/28 06:36:53;;;;;;;10.07;1.77;;;;;;;;;;5049751;28;20799;-64
2023/03/28 06:39:19;;;;;;;19.27;2.90;;;;;;;;;;5049347;28;20041;-64
2023/03/28 06:41:45;;;;;;;9.23;1.67;;;;;;;;;;5036166;28;20394;-64
2023/03/28 06:44:11;;;;;;;10.80;2.20;;;;;;;;;;5049025;28;20033;-64
2023/03/28 06:46:37;;;;;;;11.13;2.08;;;;;;;;;;5049756;28;20139;-64
2023/03/28 06:49:04;;;;;;;8.23;1.92;;;;;;;;;;5043175;28;20037;-63
2023/03/28 06:51:30;;;;;;;9.70;2.47;;;;;;;;;;5048191;28;20141;-62
2023/03/28 06:53:56;;;;;;;9.02;2.15;;;;;;;;;;5049791;28;20453;-63
2023/03/28 06:56:22;;;;;;;7.78;2.35;;;;;;;;;;5049227;28;20045;-62
2023/03/28 06:58:48;;;;;;;9.95;1.83;;;;;;;;;;5047668;28;20416;-63
2023/03/28 07:01:14;;;;;;;8.18;1.90;;;;;;;;;;5048278;28;20384;-64
2023/03/28 07:03:42;;;;;;;7.80;1.65;;;;;;;;;;5053408;28;20780;-63
2023/03/28 07:06:09;;;;;;;12.00;2.85;;;;;;;;;;5052113;28;20549;-62
2023/03/28 07:08:35;;;;;;;5.70;1.42;;;;;;;;;;5052519;28;20148;-62
2023/03/28 07:11:02;;;;;;;9.48;2.10;;;;;;;;;;5048536;28;20036;-63
2023/03/28 07:13:28;;;;;;;8.18;2.40;;;;;;;;;;5052528;28;20037;-63
2023/03/28 07:16:01;;;;;;;10.63;2.25;;;;;;;;;;5052806;28;20136;-63
2023/03/28 07:18:27;;;;;;;14.13;2.97;;;;;;;;;;5053122;28;20044;-62
2023/03/28 07:20:54;;;;;;;7.60;1.90;;;;;;;;;;5052232;28;20750;-62
2023/03/28 07:23:20;;;;;;;9.35;2.08;;;;;;;;;;5051815;28;20053;-62
2023/03/28 07:25:46;;;;;;;7.53;1.98;;;;;;;;;;5053006;28;20115;-63
2023/03/28 07:28:12;;;;;;;10.18;1.67;;;;;;;;;;5052104;28;20531;-63
2023/03/28 07:30:38;;;;;;;9.48;2.28;;;;;;;;;;5053118;28;20047;-63
2023/03/28 07:33:04;;;;;;;10.10;1.83;;;;;;;;;;5052076;28;20044;-64
2023/03/28 07:35:30;;;;;;;12.77;1.88;;;;;;;;;;5051992;28;20591;-63
2023/03/28 07:37:57;;;;;;;8.20;1.80;;;;;;;;;;5052657;28;20041;-62
2023/03/28 07:40:23;;;;;;;5.95;1.92;;;;;;;;;;5052099;28;20041;-62
2023/03/28 07:42:49;;;;;;;10.27;1.80;;;;;;;;;;5052002;28;20045;-62
2023/03/28 07:45:15;;;;;;;11.10;2.15;;;;;;;;;;5052072;28;20041;-62
2023/03/28 07:47:41;;;;;;;13.77;2.85;;;;;;;;;;5052214;28;20044;-62
2023/03/28 07:50:08;;;;;;;15.55;2.15;;;;;;;;;;5052603;28;20495;-62
2023/03/28 07:52:34;;;;;;;6.40;1.88;;;;;;;;;;5051353;28;20055;-63
2023/03/28 07:55:00;;;;;;;13.88;2.90;;;;;;;;;;5052048;28;20410;-63
2023/03/28 07:57:26;;;;;;;15.73;3.28;;;;;;;;;;5034144;28;20148;-63
2023/03/28 07:59:54;;;;;;;12.40;3.42;;;;;;;;;;5046882;28;20124;-62
2023/03/28 08:02:20;;;;;;;12.05;3.28;;;;;;;;;;5050286;28;20166;-62
2023/03/28 08:04:47;;;;;;;10.38;3.30;;;;;;;;;;5050871;28;20194;-62
2023/03/28 08:07:14;;;;;;;9.73;3.30;;;;;;;;;;5048760;28;20052;-62
2023/03/28 08:09:40;;;;;;;14.02;3.53;;;;;;;;;;5051382;28;20106;-62
2023/03/28 08:12:06;;;;;;;9.93;2.13;;;;;;;;;;5043693;28;20064;-63
2023/03/28 08:14:32;;;;;;;11.55;2.90;;;;;;;;;;5042386;28;20044;-62
2023/03/28 08:16:58;;;;;;;11.20;2.78;;;;;;;;;;5050918;28;20402;-63
2023/03/28 08:19:24;;;;;;;9.70;2.75;;;;;;;;;;5044254;28;20037;-61
2023/03/28 08:21:50;;;;;;;9.70;2.22;;;;;;;;;;5041652;28;20043;-62
2023/03/28 08:24:16;;;;;;;9.77;1.90;;;;;;;;;;5029764;28;20042;-62
2023/03/28 08:26:42;;;;;;;7.28;1.50;;;;;;;;;;5029559;28;20076;-62
2023/03/28 08:29:10;;;;;;;5.18;1.33;;;;;;;;;;5029914;28;20045;-61
2023/03/28 08:31:36;;;;;;;7.53;1.52;;;;;;;;;;5030589;28;20049;-61
2023/03/28 08:34:02;;;;;;;9.40;1.90;;;;;;;;;;5030805;28;20479;-63
2023/03/28 08:36:28;;;;;;;11.95;1.58;;;;;;;;;;5035276;28;20049;-62
2023/03/28 08:38:59;;;;;;;9.55;1.95;;;;;;;;;;5033493;28;20143;-62
2023/03/28 08:41:43;;;;;;;9.57;1.75;;;;;;;;;;5036633;28;20057;-62
2023/03/28 08:44:12;;;;;;;7.05;1.40;;;;;;;;;;5031632;28;20069;-61
2023/03/28 08:46:41;;;;;;;8.60;1.60;;;;;;;;;;5030947;28;20033;-62
2023/03/28 08:49:10;;;;;;;14.23;1.40;;;;;;;;;;5036502;28;20042;-62
2023/03/28 08:51:40;;;;;;;7.05;1.73;;;;;;;;;;5032709;28;20037;-62
2023/03/28 08:54:12;;;;;;;7.45;1.60;;;;;;;;;;5031446;28;20407;-62
2023/03/28 08:56:46;;;;;;;5.63;1.52;;;;;;;;;;5030714;28;20033;-62
2023/03/28 08:59:16;;;;;;;8.77;1.73;;;;;;;;;;5027498;28;20041;-60
2023/03/28 09:01:43;;;;;;;8.85;1.77;;;;;;;;;;5027116;28;20045;-62
2023/03/28 09:04:29;;;;;;;4.53;1.67;;;;;;;;;;5030112;28;20041;-63
2023/03/28 09:07:02;;;;;;;8.00;1.70;;;;;;;;;;5029795;28;20077;-62
2023/03/28 09:09:49;;;;;;;5.03;1.23;;;;;;;;;;5028537;28;20041;-63
2023/03/28 09:12:34;;;;;;;5.55;1.35;;;;;;;;;;5027573;28;20033;-63
2023/03/28 09:15:03;;;;;;;7.07;1.25;;;;;;;;;;5023637;28;20442;-63
2023/03/28 09:17:41;;;;;;;6.53;1.33;;;;;;;;;;5025604;28;20041;-63
2023/03/28 09:20:16;;;;;;;5.85;1.40;;;;;;;;;;5027982;28;20029;-63
2023/03/28 09:22:51;;;;;;;4.35;1.15;;;;;;;;;;5037151;28;20496;-63
2023/03/28 09:25:31;;;;;;;6.85;1.13;;;;;;;;;;5036139;28;20041;-63
2023/03/28 09:27:57;;;;;;;7.40;1.30;;;;;;;;;;5040905;28;20051;-62
2023/03/28 09:30:28;;;;;;;6.07;1.35;;;;;;;;;;5051642;28;20080;-61
2023/03/28 09:32:57;;;;;;;6.53;1.30;;;;;;;;;;5048404;28;20106;-63
2023/03/28 09:35:24;;;;;;;5.03;1.10;;;;;;;;;;5048375;28;20039;-63
2023/03/28 09:37:52;;;;;;;6.45;1.00;;;;;;;;;;5049719;28;20076;-62
2023/03/28 09:40:26;;;;;;;4.88;1.27;;;;;;;;;;5049338;28;20063;-62
2023/03/28 09:43:09;;;;;;;3.17;0.98;;;;;;;;;;5029862;28;20041;-62
2023/03/28 09:45:35;;;;;;;4.82;1.00;;;;;;;;;;5047389;28;20786;-63
2023/03/28 09:48:02;;;;;;;3.13;1.00;;;;;;;;;;5049031;28;20037;-59
2023/03/28 09:50:28;;;;;;;5.15;1.20;;;;;;;;;;5060677;28;20036;-58
2023/03/28 09:52:56;;;;;;;5.95;1.15;;;;;;;;;;5048514;28;20029;-59
2023/03/28 09:55:23;;;;;;;4.13;1.30;;;;;;;;;;5047985;28;20072;-61
2023/03/28 09:58:03;;;;;;;2.72;1.10;;;;;;;;;;5043334;28;20064;-61
2023/03/28 10:00:33;;;;;;;6.30;1.20;;;;;;;;;;5049179;28;20119;-59
2023/03/28 10:03:02;;;;;;;7.15;1.00;;;;;;;;;;5046918;28;20032;-63
2023/03/28 10:05:39;;;;;;;8.77;1.20;;;;;;;;;;5048277;28;20041;-63
2023/03/28 10:08:25;;;;;;;5.78;0.93;;;;;;;;;;5044245;28;20045;-61
2023/03/28 10:11:03;;;;;;;4.10;0.90;;;;;;;;;;5043870;28;20045;-59
2023/03/28 10:13:35;;;;;;;5.95;1.23;;;;;;;;;;5044247;28;20083;-61
2023/03/28 10:16:02;;;;;;;3.60;1.10;;;;;;;;;;5047490;28;20041;-61
2023/03/28 10:18:30;;;;;;;2.60;1.02;;;;;;;;;;5046189;28;20045;-60
2023/03/28 10:20:56;;;;;;;5.35;1.17;;;;;;;;;;5046038;28;20052;-63
2023/03/28 10:23:23;;;;;;;3.30;1.15;;;;;;;;;;5047392;28;20053;-63
2023/03/28 10:25:53;;;;;;;3.70;1.05;;;;;;;;;;5047586;28;20115;-61
2023/03/28 10:28:33;;;;;;;6.20;1.10;;;;;;;;;;5043985;28;20041;-60
2023/03/28 10:31:00;;;;;;;10.13;1.30;;;;;;;;;;5041234;28;20072;-60
2023/03/28 10:33:37;;;;;;;4.00;1.10;;;;;;;;;;5047319;28;20507;-59
2023/03/28 10:36:08;;;;;;;7.32;1.50;;;;;;;;;;5053629;28;20041;-59
2023/03/28 10:38:36;;;;;;;4.85;1.45;;;;;;;;;;5053793;28;20120;-60
2023/03/28 10:41:06;;;;;;;3.30;1.20;;;;;;;;;;5052957;28;20037;-59
2023/03/28 10:43:41;;;;;;;5.60;1.30;;;;;;;;;;5053369;28;20040;-59
2023/03/28 10:46:13;;;;;;;4.47;1.60;;;;;;;;;;5047636;28;20485;-60
2023/03/28 10:48:40;;;;;;;6.25;1.40;;;;;;;;;;5051456;28;20037;-60
2023/03/28 10:51:09;;;;;;;5.50;1.50;;;;;;;;;;5053187;28;20094;-60
2023/03/28 10:53:44;;;;;;;7.80;1.77;;;;;;;;;;5053566;28;20048;-59
2023/03/28 10:56:19;;;;;;;9.05;1.95;;;;;;;;;;5052926;28;20040;-60
2023/03/28 10:58:53;;;;;;;6.00;1.60;;;;;;;;;;5053447;28;20049;-60
2023/03/28 11:01:20;;;;;;;3.90;1.83;;;;;;;;;;5050147;28;20125;-62
2023/03/28 11:04:02;;;;;;;6.75;1.83;;;;;;;;;;5035542;28;20037;-63
2023/03/28 11:06:28;;;;;;;;;;;;;;;;;;5047272;28;20041;-63
2023/03/28 11:09:17;;;;;;;6.10;1.90;;;;;;;;;;5051486;28;19928;-62
2023/03/28 11:12:06;;;;;;;4.07;1.90;;;;;;;;;;5050718;28;20743;-61
2023/03/28 11:14:39;;;;;;;4.07;2.10;;;;;;;;;;5043483;28;20036;-62
2023/03/28 11:17:06;;;;;;;4.18;1.80;;;;;;;;;;5057584;28;20052;-63
2023/03/28 11:19:47;;;;;;;4.15;1.80;;;;;;;;;;5049625;28;20084;-64
2023/03/28 11:22:31;;;;;;;4.00;1.70;;;;;;;;;;5051469;28;20041;-62
2023/03/28 11:25:13;;;;;;;5.82;2.10;;;;;;;;;;5044383;28;20057;-63
2023/03/28 11:27:44;;;;;;;7.03;2.30;;;;;;;;;;5042413;28;20069;-62
2023/03/28 11:30:10;;;;;;;7.20;2.03;;;;;;;;;;5036037;28;20052;-63
2023/03/28 11:32:46;;;;;;;4.55;1.80;;;;;;;;;;5052042;28;20713;-62
2023/03/28 11:35:12;;;;;;;4.35;2.10;;;;;;;;;;5052465;28;20044;-64
2023/03/28 11:38:01;;;;;;;7.68;2.10;;;;;;;;;;5051411;28;20045;-63
2023/03/28 11:40:30;;;;;;;6.40;2.20;;;;;;;;;;5042232;28;20049;-62
2023/03/28 11:42:57;;;;;;;5.50;1.80;;;;;;;;;;5052729;28;20376;-63
2023/03/28 11:45:35;;;;;;;5.57;1.60;;;;;;;;;;5050901;28;20040;-63
2023/03/28 11:48:25;;;;;;;7.75;1.75;;;;;;;;;;5051772;28;20040;-62
2023/03/28 11:51:12;;;;;;;3.28;1.67;;;;;;;;;;5041010;28;20064;-61
2023/03/28 11:53:57;;;;;;;6.13;1.80;;;;;;;;;;5049514;28;20041;-62
2023/03/28 11:56:30;;;;;;;6.10;1.70;;;;;;;;;;5042310;28;20083;-61
2023/03/28 11:58:59;;;;;;;5.60;1.90;;;;;;;;;;5052355;28;20041;-61
2023/03/28 12:01:31;;;;;;;6.65;1.77;;;;;;;;;;5051261;28;20047;-62
2023/03/28 12:04:06;;;;;;;5.20;1.73;;;;;;;;;;5051470;28;20044;-61
2023/03/28 12:06:52;;;;;;;5.47;2.13;;;;;;;;;;5052183;28;20094;-60
2023/03/28 12:09:29;;;;;;;7.40;2.03;;;;;;;;;;5051230;28;20080;-60
2023/03/28 12:12:15;;;;;;;7.63;2.10;;;;;;;;;;5043986;28;20405;-60
2023/03/28 12:14:46;;;;;;;4.75;2.10;;;;;;;;;;5051954;28;20041;-61
2023/03/28 12:17:23;;;;;;;6.78;2.28;;;;;;;;;;5048479;28;20041;-62
2023/03/28 12:19:49;;;;;;;5.65;1.70;;;;;;;;;;5047832;28;20861;-62
2023/03/28 12:22:20;;;;;;;5.97;1.58;;;;;;;;;;5050602;28;20071;-61
2023/03/28 12:25:06;;;;;;;6.65;1.83;;;;;;;;;;5050046;28;20041;-61
2023/03/28 12:27:41;;;;;;;7.10;2.05;;;;;;;;;;5048231;28;20044;-61
2023/03/28 12:30:08;;;;;;;5.70;1.65;;;;;;;;;;5049094;28;20045;-62
2023/03/28 12:32:34;;;;;;;3.80;1.30;;;;;;;;;;5048075;28;20108;-62
2023/03/28 12:35:23;;;;;;;5.68;1.83;;;;;;;;;;5050062;28;20056;-62
2023/03/28 12:37:58;;;;;;;4.18;1.80;;;;;;;;;;5050967;28;20041;-62
2023/03/28 12:40:24;;;;;;;6.38;2.03;;;;;;;;;;5050672;28;20120;-62
2023/03/28 12:42:52;;;;;;;6.93;1.88;;;;;;;;;;5051120;28;20032;-62
2023/03/28 12:45:29;;;;;;;7.53;2.35;;;;;;;;;;5049592;28;20123;-61
2023/03/28 12:48:01;;;;;;;4.47;1.55;;;;;;;;;;5049587;28;20071;-60
2023/03/28 12:50:32;;;;;;;8.35;2.33;;;;;;;;;;5049933;28;20048;-62
2023/03/28 12:52:58;;;;;;;5.90;2.00;;;;;;;;;;5043950;28;20029;-60
2023/03/28 12:55:24;;;;;;;6.70;2.25;;;;;;;;;;5048203;28;20048;-61
2023/03/28 12:57:51;;;;;;;5.65;1.90;;;;;;;;;;5040534;28;20033;-61
2023/03/28 13:00:21;;;;;;;7.28;2.05;;;;;;;;;;5051646;28;20498;-61
2023/03/28 13:02:53;;;;;;;5.22;2.10;;;;;;;;;;5045402;28;20087;-61
2023/03/28 13:05:19;;;;;;;;;;;;;;;;;;5051287;28;20040;-60
2023/03/28 13:07:45;;;;;;;5.50;1.65;;;;;;;;;;5051331;28;19920;-60
2023/03/28 13:10:22;;;;;;;4.85;1.75;;;;;;;;;;5050800;28;20045;-62
2023/03/28 13:13:00;;;;;;;3.38;1.42;;;;;;;;;;5051320;28;20087;-62
2023/03/28 13:15:30;;;;;;;6.80;1.92;;;;;;;;;;5051038;28;20076;-62
2023/03/28 13:18:15;;;;;;;7.05;2.30;;;;;;;;;;5050501;28;20045;-62
2023/03/28 13:20:47;;;;;;;4.10;1.80;;;;;;;;;;5051018;28;20045;-62
2023/03/28 13:23:16;;;;;;;5.65;2.13;;;;;;;;;;5050561;28;20415;-62
2023/03/28 13:25:56;;;;;;;6.00;1.80;;;;;;;;;;5049841;28;20041;-61
2023/03/28 13:28:40;;;;;;;6.88;2.05;;;;;;;;;;5050901;28;20053;-61
2023/03/28 13:31:20;;;;;;;6.07;2.47;;;;;;;;;;5049499;28;20060;-62
2023/03/28 13:33:47;;;;;;;8.68;2.35;;;;;;;;;;5051037;28;20129;-62
2023/03/28 13:36:23;;;;;;;5.32;2.00;;;;;;;;;;5050896;28;20535;-61
2023/03/28 13:38:58;;;;;;;4.18;2.38;;;;;;;;;;5050269;28;20114;-61
2023/03/28 13:41:34;;;;;;;4.00;2.08;;;;;;;;;;5050875;28;20408;-61
2023/03/28 13:44:01;;;;;;;4.47;2.15;;;;;;;;;;5050809;28;20045;-61
2023/03/28 13:46:27;;;;;;;4.40;1.80;;;;;;;;;;5050466;28;20045;-60
2023/03/28 13:49:06;;;;;;;5.53;2.03;;;;;;;;;;5050872;28;20526;-61
2023/03/28 13:51:38;;;;;;;5.50;2.10;;;;;;;;;;5050778;28;20045;-61
2023/03/28 13:54:05;;;;;;;3.97;1.75;;;;;;;;;;5049443;28;20127;-62
2023/03/28 13:56:31;;;;;;;6.53;2.40;;;;;;;;;;5050098;28;20049;-61
2023/03/28 13:58:57;;;;;;;6.85;2.65;;;;;;;;;;5049957;28;20040;-60
2023/03/28 14:01:25;;;;;;;4.13;2.08;;;;;;;;;;5049397;28;20124;-60
2023/03/28 14:03:52;;;;;;;7.55;2.58;;;;;;;;;;5048755;28;20037;-60
2023/03/28 14:06:22;;;;;;;4.88;2.42;;;;;;;;;;5048978;28;20121;-60
2023/03/28 14:08:49;;;;;;;8.00;2.45;;;;;;;;;;5048105;28;20039;-60
2023/03/28 14:11:22;;;;;;;3.83;2.65;;;;;;;;;;5049134;28;20392;-61
2023/03/28 14:13:49;;;;;;;5.85;3.05;;;;;;;;;;5048955;28;20040;-61
2023/03/28 14:16:16;;;;;;;6.60;2.80;;;;;;;;;;5048411;28;20438;-61
2023/03/28 14:18:47;;;;;;;5.82;2.92;;;;;;;;;;5048838;28;20064;-62
2023/03/28 14:21:14;;;;;;;6.45;2.83;;;;;;;;;;5048660;28;20603;-60
2023/03/28 14:24:00;;;;;;;7.45;2.90;;;;;;;;;;5045275;28;20116;-59
2023/03/28 14:26:28;;;;;;;5.25;2.90;;;;;;;;;;5048839;28;20053;-59
2023/03/28 14:29:00;;;;;;;9.73;3.38;;;;;;;;;;5049887;28;20076;-59
2023/03/28 14:31:29;;;;;;;8.38;2.80;;;;;;;;;;5049434;28;20127;-59
2023/03/28 14:33:57;;;;;;;6.43;2.95;;;;;;;;;;5050088;28;20049;-60
2023/03/28 14:36:23;;;;;;;4.45;2.90;;;;;;;;;;5050293;28;20049;-61
2023/03/28 14:38:49;;;;;;;6.88;3.38;;;;;;;;;;5048983;28;20476;-61
2023/03/28 14:41:28;;;;;;;8.30;3.38;;;;;;;;;;5050196;28;20505;-61
2023/03/28 14:43:54;;;;;;;7.60;3.28;;;;;;;;;;5049902;28;20064;-62
2023/03/28 14:46:28;;;;;;;6.97;3.83;;;;;;;;;;5049370;28;20047;-62
2023/03/28 14:48:55;;;;;;;7.28;3.28;;;;;;;;;;5050151;28;20076;-62
2023/03/28 14:51:21;;;;;;;5.95;3.00;;;;;;;;;;5049875;28;20186;-62
2023/03/28 14:53:48;;;;;;;8.05;3.35;;;;;;;;;;5048987;28;20060;-62
2023/03/28 14:56:18;;;;;;;8.52;3.05;;;;;;;;;;5049837;28;20064;-62